Argo Village, New York
Current Conditions -  °F | °C
As of 11:51 PM on Tuesday 21 Oct 2014 (Local Time) from KJFK Reporting Station
Broken Clouds Broken Clouds  
Wind Chill: 58°   Ceiling: 9500
Heat Index: 58°   Visibility: 10mi
Dew Point: 53°   Wind: 10mph
Humidity: 84%   Direction: 40°NE
Pressure: 29.9"   Gusts: NA
Location:  40.7013°N, 73.7074°W
Report Text: KJFK 220351Z 04009KT 10SM FEW040 BKN095 BKN210 14/12 A2990 RMK AO2 SLP125 T01440117 $
Loading
Personal Weather Stations






























Interactive Weather Map
Tropical Storm Tracking
New forecast layout! Learn more

10-Day Weather Forecast

Advertisements
Track Severe Weather on mobile